Peyton, Colorado
Current Conditions -  °F | °C
As of 6:14 AM on Wednesday 22 Oct 2014 (Local Time) from KFLY Reporting Station
Clear Clear  
Wind Chill: 41°   Ceiling: Unl
Heat Index: 47°   Visibility: 10mi
Dew Point: 39°   Wind: 13mph
Humidity: 74%   Direction: 330°NNW
Pressure: 30.13"   Gusts: 17mph
Location:  39.03°N, 104.48°W
Report Text: KFLY 221214Z AUTO 33011G15KT 10SM CLR 08/04 A3013 RMK AO2 T00810038
Loading
Personal Weather Stations






























Interactive Weather Map
Tropical Storm Tracking
New forecast layout! Learn more

10-Day Weather Forecast

Advertisements
Track Severe Weather on mobile